Amherst, Colorado
Current Conditions -  °F | °C
As of 8:15 PM on Friday 21 Nov 2014 (Local Time) from KHEQ Reporting Station
Clear Clear  
Wind Chill: 25°   Ceiling: Unl
Heat Index: 32°   Visibility: 10mi
Dew Point: 19°   Wind: 8mph
Humidity: 60%   Direction: 290°WNW
Pressure: 29.92"   Gusts: NA
Location:  40.68°N, 102.17°W
Report Text: KHEQ 220315Z AUTO 29007KT 10SM CLR 00/M07 A2992 RMK AO2
Loading
Personal Weather Stations






























Interactive Weather Map New forecast layout! Learn more

10-Day Weather Forecast

Advertisements
Track Severe Weather on mobile